createdAt,value
2018-12-06T00:00:30.289Z,5.40
2018-12-06T00:03:01.384Z,4.90
2018-12-06T00:05:31.784Z,4.77
2018-12-06T00:08:31.223Z,5.20
2018-12-06T00:11:04.669Z,5.10
2018-12-06T00:13:33.529Z,4.73
2018-12-06T00:16:03.064Z,4.97
2018-12-06T00:18:34.977Z,4.40
2018-12-06T00:21:03.765Z,4.40
2018-12-06T00:23:33.350Z,4.07
2018-12-06T00:26:02.210Z,4.33
2018-12-06T00:28:31.091Z,3.97
2018-12-06T00:31:05.436Z,4.50
2018-12-06T00:33:35.764Z,4.27
2018-12-06T00:36:04.636Z,3.93
2018-12-06T00:38:33.415Z,4.57
2018-12-06T00:41:02.192Z,4.33
2018-12-06T00:43:30.953Z,4.03
2018-12-06T00:46:06.838Z,4.17
2018-12-06T00:48:39.174Z,4.63
2018-12-06T00:51:08.917Z,3.70
2018-12-06T00:53:37.823Z,3.63
2018-12-06T00:56:11.528Z,3.67
2018-12-06T00:58:40.306Z,3.80
2018-12-06T01:01:10.253Z,4.37
2018-12-06T01:03:39.034Z,4.00
2018-12-06T01:06:07.844Z,4.20
2018-12-06T01:08:40.402Z,4.50
2018-12-06T01:11:10.510Z,4.50
2018-12-06T01:13:40.869Z,4.90
2018-12-06T01:16:09.762Z,4.33
2018-12-06T01:32:47.619Z,5.00
2018-12-06T01:35:16.407Z,4.30
2018-12-06T01:37:45.193Z,4.13
2018-12-06T01:40:13.949Z,3.73
2018-12-06T01:42:42.714Z,4.00
2018-12-06T01:45:12.579Z,4.57
2018-12-06T01:47:41.652Z,4.93
2018-12-06T01:50:10.553Z,4.20
2018-12-06T01:52:39.623Z,5.07
2018-12-06T01:55:08.485Z,4.57
2018-12-06T01:57:37.313Z,4.20
2018-12-06T02:00:07.500Z,4.60
2018-12-06T02:02:37.716Z,5.20
2018-12-06T02:05:08.346Z,4.73
2018-12-06T02:07:39.775Z,4.63
2018-12-06T02:10:09.567Z,4.63
2018-12-06T02:12:39.873Z,4.90
2018-12-06T02:15:12.139Z,4.70
2018-12-06T02:17:44.164Z,4.77
2018-12-06T02:20:13.286Z,4.50
2018-12-06T02:22:42.117Z,4.37
2018-12-06T02:25:10.993Z,4.73
2018-12-06T02:27:41.929Z,4.93
2018-12-06T02:30:11.816Z,5.03
2018-12-06T02:32:41.836Z,4.93
2018-12-06T02:35:10.744Z,4.90
2018-12-06T02:37:39.641Z,4.90
2018-12-06T02:40:08.565Z,4.53
2018-12-06T02:42:37.319Z,4.97
2018-12-06T02:45:06.620Z,5.00
2018-12-06T02:47:37.092Z,4.60
2018-12-06T02:50:07.275Z,4.63
2018-12-06T02:52:38.299Z,5.07
2018-12-06T02:55:08.480Z,4.97
2018-12-06T02:57:39.777Z,4.73
2018-12-06T03:00:12.459Z,5.10
2018-12-06T03:02:41.707Z,4.90
2018-12-06T03:05:11.252Z,5.03
2018-12-06T03:07:44.416Z,5.10
2018-12-06T03:10:14.496Z,5.10
2018-12-06T03:12:43.337Z,4.20
2018-12-06T03:15:12.281Z,5.10
2018-12-06T03:17:41.060Z,5.20
2018-12-06T03:20:10.048Z,5.10
2018-12-06T03:22:42.005Z,5.33
2018-12-06T03:25:15.853Z,5.73
2018-12-06T03:27:44.819Z,5.27
2018-12-06T03:30:14.347Z,5.10
2018-12-06T03:32:44.600Z,5.50
2018-12-06T03:35:14.170Z,5.53
2018-12-06T03:37:45.674Z,5.37
2018-12-06T03:40:15.282Z,5.53
2018-12-06T03:42:46.577Z,5.50
2018-12-06T03:45:16.258Z,5.47
2018-12-06T03:47:46.183Z,5.50
2018-12-06T03:50:16.239Z,5.27
2018-12-06T03:52:47.320Z,6.03
2018-12-06T03:55:17.190Z,5.57
2018-12-06T03:57:45.953Z,5.53
2018-12-06T04:00:15.864Z,6.00
2018-12-06T04:02:47.098Z,6.13
2018-12-06T04:05:18.373Z,6.23
2018-12-06T04:07:49.451Z,5.77
2018-12-06T04:10:20.153Z,5.93
2018-12-06T04:12:51.174Z,5.80
2018-12-06T04:15:21.587Z,6.10
2018-12-06T04:17:50.892Z,6.43
2018-12-06T04:20:21.214Z,5.20
2018-12-06T04:22:49.951Z,6.00
2018-12-06T04:25:18.694Z,5.83
2018-12-06T04:27:49.695Z,6.33
2018-12-06T04:30:24.912Z,5.87
2018-12-06T04:32:53.705Z,5.93
2018-12-06T04:35:23.089Z,5.80
2018-12-06T04:37:54.902Z,5.40
2018-12-06T04:40:25.227Z,5.80
2018-12-06T04:42:55.378Z,5.67
2018-12-06T04:45:25.792Z,5.77
2018-12-06T04:47:55.994Z,5.93
2018-12-06T04:50:26.182Z,6.03
2018-12-06T04:52:56.780Z,5.80
2018-12-06T04:55:27.130Z,6.20
2018-12-06T04:57:57.183Z,6.00
2018-12-06T05:00:27.668Z,5.37
2018-12-06T05:02:58.069Z,6.00
2018-12-06T05:05:29.291Z,6.37
2018-12-06T05:07:59.047Z,6.07
2018-12-06T05:10:28.928Z,6.00
2018-12-06T05:12:58.062Z,5.63
2018-12-06T05:15:27.491Z,5.90
2018-12-06T05:17:57.034Z,6.23
2018-12-06T05:20:26.476Z,6.03
2018-12-06T05:22:55.287Z,6.17
2018-12-06T05:25:24.076Z,6.03
2018-12-06T05:27:52.844Z,6.27
2018-12-06T05:30:21.796Z,6.00
2018-12-06T05:32:50.591Z,6.00
2018-12-06T05:35:19.477Z,5.97
2018-12-06T05:37:48.235Z,5.93
2018-12-06T05:40:17.023Z,5.20
2018-12-06T05:42:46.856Z,5.93
2018-12-06T05:45:15.713Z,6.27
2018-12-06T05:47:44.518Z,6.10
2018-12-06T05:50:13.426Z,6.00
2018-12-06T05:52:42.130Z,5.80
2018-12-06T05:55:10.940Z,5.53
2018-12-06T05:57:39.718Z,6.13
2018-12-06T06:00:09.627Z,6.47
2018-12-06T06:02:38.408Z,5.63
2018-12-06T06:05:07.776Z,5.80
2018-12-06T06:07:36.606Z,5.70
2018-12-06T06:10:05.864Z,5.97
2018-12-06T06:12:34.714Z,5.60
2018-12-06T06:15:03.564Z,5.93
2018-12-06T06:17:32.491Z,5.87
2018-12-06T06:20:01.307Z,5.50
2018-12-06T06:22:30.202Z,5.83
2018-12-06T06:24:59.069Z,5.70
2018-12-06T06:27:27.777Z,5.60
2018-12-06T06:29:56.516Z,9.10
2018-12-06T06:32:25.261Z,5.47
2018-12-06T06:34:54.116Z,5.33
2018-12-06T06:37:22.860Z,5.27
2018-12-06T06:39:51.690Z,5.27
2018-12-06T06:42:20.618Z,5.63
2018-12-06T06:44:49.412Z,5.80
2018-12-06T06:47:18.149Z,5.03
2018-12-06T06:49:46.953Z,5.73
2018-12-06T06:52:15.833Z,5.67
2018-12-06T06:54:44.558Z,5.27
2018-12-06T06:57:13.291Z,5.80
2018-12-06T06:59:42.059Z,6.03
2018-12-06T07:02:11.836Z,5.43
2018-12-06T07:04:40.768Z,5.43
2018-12-06T07:07:09.614Z,5.93
2018-12-06T07:09:39.427Z,6.60
2018-12-06T07:12:08.437Z,5.83
2018-12-06T07:14:37.260Z,5.67
2018-12-06T07:17:06.051Z,6.00
2018-12-06T07:19:34.939Z,5.47
2018-12-06T07:22:03.826Z,6.20
2018-12-06T07:24:32.658Z,6.23
2018-12-06T07:27:01.512Z,5.93
2018-12-06T07:29:30.380Z,6.67
2018-12-06T07:31:59.247Z,6.72
2018-12-06T07:34:28.127Z,6.10
2018-12-06T07:36:56.898Z,6.27
2018-12-06T07:39:25.748Z,6.23
2018-12-06T07:41:54.615Z,5.97
2018-12-06T07:44:23.351Z,6.60
2018-12-06T07:46:52.180Z,6.40
2018-12-06T07:49:20.976Z,6.17
2018-12-06T07:51:49.757Z,6.10
2018-12-06T07:54:18.631Z,6.17
2018-12-06T07:56:47.453Z,6.23
2018-12-06T07:59:16.257Z,6.30
2018-12-06T08:01:45.052Z,6.00
2018-12-06T08:04:15.045Z,5.60
2018-12-06T08:06:43.957Z,6.77
2018-12-06T08:09:12.857Z,6.23
2018-12-06T08:11:41.747Z,7.00
2018-12-06T08:14:10.564Z,6.83
2018-12-06T08:16:39.350Z,6.07
2018-12-06T08:19:08.199Z,6.30
2018-12-06T08:21:36.894Z,5.97
2018-12-06T08:24:05.697Z,6.57
2018-12-06T08:26:34.571Z,6.67
2018-12-06T08:29:03.349Z,6.23
2018-12-06T08:31:32.122Z,5.90
2018-12-06T08:34:06.089Z,8.07
2018-12-06T08:36:31.554Z,6.17
2018-12-06T08:39:00.392Z,5.93
2018-12-06T08:41:29.304Z,6.60
2018-12-06T08:43:58.148Z,6.90
2018-12-06T08:46:27.041Z,5.67
2018-12-06T08:49:02.820Z,6.30
2018-12-06T08:51:26.865Z,5.83
2018-12-06T08:53:55.734Z,6.10
2018-12-06T08:56:24.646Z,5.97
2018-12-06T08:58:53.442Z,6.30
2018-12-06T09:01:22.220Z,6.13
2018-12-06T09:03:51.155Z,6.57
2018-12-06T09:06:19.984Z,6.60
2018-12-06T09:08:48.902Z,6.23
2018-12-06T09:11:17.787Z,6.10
2018-12-06T09:13:46.629Z,6.13
2018-12-06T09:16:16.332Z,6.20
2018-12-06T09:18:45.447Z,5.83
2018-12-06T09:21:14.182Z,6.40
2018-12-06T09:23:43.020Z,6.17
2018-12-06T09:26:11.842Z,6.43
2018-12-06T09:28:40.608Z,6.50
2018-12-06T09:31:09.439Z,6.93
2018-12-06T09:33:53.590Z,6.40
2018-12-06T09:36:22.356Z,6.20
2018-12-06T09:38:51.204Z,6.27
2018-12-06T09:41:20.111Z,6.37
2018-12-06T09:43:48.923Z,6.07
2018-12-06T09:46:17.717Z,6.70
2018-12-06T09:48:46.627Z,6.33
2018-12-06T09:51:16.490Z,6.40
2018-12-06T09:53:45.332Z,6.53
2018-12-06T09:56:14.203Z,6.33
2018-12-06T09:58:43.057Z,6.30
2018-12-06T10:01:11.846Z,5.97
2018-12-06T10:03:40.680Z,5.93
2018-12-06T10:06:09.459Z,6.20
2018-12-06T10:08:38.211Z,6.00
2018-12-06T10:11:07.081Z,5.97
2018-12-06T10:13:35.922Z,5.70
2018-12-06T10:16:04.751Z,6.90
2018-12-06T10:18:33.527Z,5.83
2018-12-06T10:21:02.369Z,5.90
2018-12-06T10:23:31.057Z,6.00
2018-12-06T10:25:59.842Z,6.30
2018-12-06T10:28:28.590Z,5.67
2018-12-06T10:30:57.386Z,6.30
2018-12-06T10:33:26.331Z,6.30
2018-12-06T10:35:55.036Z,6.30
2018-12-06T10:38:23.816Z,5.47
2018-12-06T10:40:52.642Z,5.50
2018-12-06T10:43:21.434Z,6.20
2018-12-06T10:45:50.283Z,5.70
2018-12-06T10:48:19.152Z,5.87
2018-12-06T10:50:48.066Z,5.90
2018-12-06T10:53:16.874Z,5.47
2018-12-06T10:55:45.657Z,6.23
2018-12-06T10:58:14.565Z,6.03
2018-12-06T11:00:48.978Z,5.63
2018-12-06T11:03:24.671Z,5.60
2018-12-06T11:05:53.509Z,6.20
2018-12-06T11:08:22.270Z,5.90
2018-12-06T11:10:50.971Z,6.60
2018-12-06T11:13:19.811Z,6.13
2018-12-06T11:15:48.743Z,5.70
2018-12-06T11:18:17.634Z,5.73
2018-12-06T11:20:46.498Z,6.20
2018-12-06T11:23:15.421Z,6.30
2018-12-06T11:25:44.314Z,5.77
2018-12-06T11:28:13.204Z,6.10
2018-12-06T11:30:42.033Z,5.90
2018-12-06T11:33:11.138Z,5.73
2018-12-06T11:35:41.358Z,5.37
2018-12-06T11:38:11.085Z,5.93
2018-12-06T11:40:40.968Z,5.60
2018-12-06T11:43:11.135Z,6.10
2018-12-06T11:45:40.499Z,5.63
2018-12-06T11:48:10.004Z,6.10
2018-12-06T11:50:39.411Z,5.90
2018-12-06T11:53:09.052Z,6.00
2018-12-06T11:55:38.258Z,5.50
2018-12-06T11:58:11.399Z,5.80
2018-12-06T12:00:39.136Z,5.30
2018-12-06T12:03:08.500Z,6.00
2018-12-06T12:05:37.933Z,5.50
2018-12-06T12:08:07.199Z,5.93
2018-12-06T12:10:36.292Z,5.30
2018-12-06T12:13:05.123Z,6.77
2018-12-06T12:15:35.895Z,6.50
2018-12-06T12:18:04.742Z,5.67
2018-12-06T12:20:33.536Z,5.50
2018-12-06T12:23:02.351Z,5.50
2018-12-06T12:25:31.139Z,5.80
2018-12-06T12:27:59.928Z,6.07
2018-12-06T12:30:28.733Z,5.60
2018-12-06T12:32:57.558Z,5.60
2018-12-06T12:35:26.344Z,5.67
2018-12-06T12:37:55.099Z,6.10
2018-12-06T12:40:24.855Z,6.10
2018-12-06T12:42:53.620Z,6.27
2018-12-06T12:45:22.553Z,5.80
2018-12-06T12:47:56.590Z,5.70
2018-12-06T12:50:26.857Z,6.17
2018-12-06T12:52:56.200Z,6.20
2018-12-06T12:55:25.198Z,6.37
2018-12-06T13:00:46.459Z,5.93
2018-12-06T13:03:16.316Z,6.27
2018-12-06T13:05:45.105Z,6.40
2018-12-06T13:08:13.789Z,6.33
2018-12-06T13:10:42.511Z,6.10
2018-12-06T13:13:11.224Z,6.37
2018-12-06T13:15:40.063Z,6.63
2018-12-06T13:18:08.931Z,6.83
2018-12-06T13:20:37.893Z,6.63
2018-12-06T13:23:06.763Z,6.77
2018-12-06T13:25:35.689Z,6.60
2018-12-06T13:28:04.648Z,6.67
2018-12-06T13:30:33.611Z,7.00
2018-12-06T13:33:03.134Z,7.77
2018-12-06T13:35:33.097Z,6.50
2018-12-06T13:38:03.652Z,7.50
2018-12-06T13:40:34.881Z,7.13
2018-12-06T13:43:04.644Z,6.73
2018-12-06T13:45:34.704Z,7.87
2018-12-06T13:48:04.611Z,6.90
2018-12-06T13:50:33.433Z,6.60
2018-12-06T13:53:02.172Z,7.60
2018-12-06T13:55:31.009Z,7.30
2018-12-06T13:57:59.826Z,7.00
2018-12-06T14:00:29.044Z,7.50
2018-12-06T14:03:00.381Z,7.00
2018-12-06T14:05:30.394Z,6.73
2018-12-06T14:08:00.375Z,6.87
2018-12-06T14:10:30.489Z,6.47
2018-12-06T14:13:00.628Z,6.43
2018-12-06T14:15:30.593Z,6.77
2018-12-06T14:18:01.077Z,6.33
2018-12-06T14:20:32.383Z,6.20
2018-12-06T14:23:03.273Z,6.27
2018-12-06T14:25:33.524Z,7.03
2018-12-06T14:28:03.483Z,7.20
2018-12-06T14:30:32.861Z,6.70
2018-12-06T14:33:02.538Z,6.43
2018-12-06T14:35:32.561Z,7.20
2018-12-06T14:38:02.833Z,7.10
2018-12-06T14:40:33.228Z,6.67
2018-12-06T14:43:02.259Z,6.43
2018-12-06T14:45:31.278Z,6.70
2018-12-06T14:48:00.123Z,7.37
2018-12-06T14:50:29.097Z,7.43
2018-12-06T14:52:58.109Z,7.77
2018-12-06T14:55:27.113Z,7.37
2018-12-06T14:57:55.937Z,7.63
2018-12-06T15:00:24.834Z,7.90
2018-12-06T15:02:53.692Z,8.10
2018-12-06T15:05:22.426Z,8.00
2018-12-06T15:07:51.245Z,11.30
2018-12-06T15:10:20.098Z,8.47
2018-12-06T15:12:50.430Z,8.90
2018-12-06T15:15:20.266Z,8.70
2018-12-06T15:17:50.212Z,9.23
2018-12-06T15:20:20.798Z,9.73
2018-12-06T15:22:53.741Z,9.27
2018-12-06T15:25:22.628Z,9.87
2018-12-06T15:27:53.198Z,9.67
2018-12-06T15:30:23.876Z,9.80
2018-12-06T15:32:53.771Z,10.50
2018-12-06T15:35:22.618Z,10.30
2018-12-06T15:37:55.276Z,11.33
2018-12-06T15:40:24.548Z,11.40
2018-12-06T15:42:55.423Z,11.83
2018-12-06T15:45:25.520Z,11.30
2018-12-06T15:47:56.427Z,12.07
2018-12-06T15:50:25.675Z,12.13
2018-12-06T15:52:56.120Z,12.50
2018-12-06T15:55:27.054Z,13.00
2018-12-06T15:57:56.791Z,12.60
2018-12-06T16:00:29.702Z,12.57
2018-12-06T16:02:58.594Z,12.07
2018-12-06T16:05:29.048Z,12.73
2018-12-06T16:07:59.801Z,11.97
2018-12-06T16:10:29.427Z,13.17
2018-12-06T16:13:00.391Z,13.57
2018-12-06T16:15:29.223Z,12.90
2018-12-06T16:17:58.015Z,13.90
2018-12-06T16:20:31.836Z,14.70
2018-12-06T16:23:01.409Z,14.07
2018-12-06T16:25:31.623Z,15.17
2018-12-06T16:28:01.055Z,14.17
2018-12-06T16:30:31.574Z,14.60
2018-12-06T16:33:01.274Z,14.30
2018-12-06T16:35:31.336Z,14.83
2018-12-06T16:38:01.932Z,16.00
2018-12-06T16:40:32.647Z,15.07
2018-12-06T16:43:02.926Z,14.33
2018-12-06T16:45:32.965Z,15.23
2018-12-06T16:50:42.687Z,14.57
2018-12-06T16:53:11.546Z,14.80
2018-12-06T16:55:40.283Z,16.47
2018-12-06T16:58:10.024Z,15.20
2018-12-06T17:00:39.959Z,15.93
2018-12-06T17:03:08.806Z,15.03
2018-12-06T17:05:37.654Z,15.50
2018-12-06T17:08:06.518Z,15.27
2018-12-06T17:10:35.454Z,15.80
2018-12-06T17:13:04.330Z,15.73
2018-12-06T17:15:34.404Z,16.60
2018-12-06T17:18:04.264Z,16.27
2018-12-06T17:20:33.222Z,15.80
2018-12-06T17:23:04.298Z,16.67
2018-12-06T17:25:34.569Z,16.20
2018-12-06T17:28:03.696Z,15.90
2018-12-06T17:30:32.534Z,16.30
2018-12-06T17:33:01.418Z,16.53
2018-12-06T17:35:30.263Z,15.60
2018-12-06T17:37:59.071Z,16.17
2018-12-06T17:40:27.860Z,15.87
2018-12-06T17:42:56.698Z,16.33
2018-12-06T17:45:25.516Z,16.90
2018-12-06T17:47:54.313Z,15.60
2018-12-06T17:50:23.079Z,15.70
2018-12-06T17:52:51.908Z,15.47
2018-12-06T17:55:20.761Z,15.73
2018-12-06T17:57:49.548Z,14.97
2018-12-06T18:00:18.373Z,15.27
2018-12-06T18:02:47.344Z,15.57
2018-12-06T18:05:16.255Z,15.23
2018-12-06T18:07:45.074Z,15.83
2018-12-06T18:10:13.893Z,15.17
2018-12-06T18:12:42.713Z,15.53
2018-12-06T18:15:11.554Z,15.93
2018-12-06T18:17:40.340Z,15.73
2018-12-06T18:20:09.179Z,15.43
2018-12-06T18:22:37.913Z,15.37
2018-12-06T18:25:06.798Z,15.37
2018-12-06T18:27:35.588Z,15.10
2018-12-06T18:30:05.876Z,15.03
2018-12-06T18:32:34.765Z,16.23
2018-12-06T18:35:03.759Z,15.73
2018-12-06T18:37:32.636Z,14.80
2018-12-06T18:40:01.408Z,15.23
2018-12-06T18:42:30.258Z,15.37
2018-12-06T18:44:58.977Z,16.70
2018-12-06T18:47:27.770Z,15.90
2018-12-06T18:49:56.846Z,16.73
2018-12-06T18:52:25.718Z,16.63
2018-12-06T18:54:54.518Z,15.87
2018-12-06T18:57:23.314Z,16.83
2018-12-06T18:59:52.084Z,16.40
2018-12-06T19:02:20.913Z,17.27
2018-12-06T19:04:49.718Z,16.83
2018-12-06T19:07:18.531Z,17.23
2018-12-06T19:09:47.302Z,23.70
2018-12-06T19:12:16.048Z,17.33
2018-12-06T19:14:44.849Z,17.63
2018-12-06T19:17:13.706Z,18.10
2018-12-06T19:19:43.907Z,18.83
2018-12-06T19:22:12.950Z,18.77
2018-12-06T19:24:41.767Z,19.17
2018-12-06T19:27:10.589Z,18.03
2018-12-06T19:29:39.395Z,19.17
2018-12-06T19:32:08.350Z,19.60
2018-12-06T19:34:37.311Z,19.27
2018-12-06T19:37:06.239Z,20.90
2018-12-06T19:39:35.124Z,18.63
2018-12-06T19:42:03.990Z,18.67
2018-12-06T19:44:32.806Z,19.33
2018-12-06T19:47:01.615Z,19.90
2018-12-06T19:49:30.407Z,19.53
2018-12-06T19:51:59.127Z,18.73
2018-12-06T19:54:27.892Z,20.57
2018-12-06T19:56:56.734Z,21.07
2018-12-06T19:59:25.558Z,22.77
2018-12-06T20:01:54.395Z,21.50
2018-12-06T20:04:23.312Z,20.80
2018-12-06T20:06:52.159Z,23.50
2018-12-06T20:09:21.005Z,20.33
2018-12-06T20:11:49.801Z,23.37
2018-12-06T20:14:18.491Z,21.97
2018-12-06T20:16:47.329Z,22.20
2018-12-06T20:19:16.189Z,21.33
2018-12-06T20:21:45.015Z,21.53
2018-12-06T20:24:13.971Z,22.40
2018-12-06T20:26:42.849Z,21.93
2018-12-06T20:29:11.687Z,21.50
2018-12-06T20:31:40.560Z,22.67
2018-12-06T20:34:09.407Z,22.67
2018-12-06T20:36:38.459Z,23.87
2018-12-06T20:39:08.989Z,25.27
2018-12-06T20:41:39.732Z,26.33
2018-12-06T20:44:10.844Z,26.07
2018-12-06T20:46:40.112Z,25.27
2018-12-06T20:49:08.959Z,25.40
2018-12-06T20:51:37.834Z,24.20
2018-12-06T20:54:07.140Z,25.27
2018-12-06T20:56:36.525Z,25.90
2018-12-06T20:59:05.913Z,24.93
2018-12-06T21:01:35.396Z,26.07
2018-12-06T21:04:04.837Z,24.80
2018-12-06T21:06:34.221Z,24.97
2018-12-06T21:09:04.483Z,26.00
2018-12-06T21:11:34.746Z,25.17
2018-12-06T21:14:04.153Z,25.73
2018-12-06T21:16:33.195Z,24.03
2018-12-06T21:19:02.170Z,24.10
2018-12-06T21:21:31.019Z,25.03
2018-12-06T21:23:59.969Z,23.87
2018-12-06T21:26:28.851Z,25.50
2018-12-06T21:28:57.645Z,25.03
2018-12-06T21:31:26.419Z,30.03
2018-12-06T21:33:55.525Z,30.87
2018-12-06T21:36:24.445Z,27.30
2018-12-06T21:38:55.234Z,27.23
2018-12-06T21:41:24.007Z,27.50
2018-12-06T21:43:52.824Z,26.17
2018-12-06T21:46:21.662Z,26.33
2018-12-06T21:48:50.536Z,27.33
2018-12-06T21:51:20.571Z,26.33
2018-12-06T21:53:50.566Z,27.13
2018-12-06T21:56:21.188Z,27.07
2018-12-06T21:58:52.623Z,27.33
2018-12-06T22:01:24.482Z,28.93
2018-12-06T22:03:53.439Z,27.87
2018-12-06T22:06:22.218Z,27.57
2018-12-06T22:08:51.083Z,27.93
2018-12-06T22:11:19.956Z,29.17
2018-12-06T22:13:49.003Z,26.57
2018-12-06T22:16:17.845Z,26.83
2018-12-06T22:18:46.693Z,28.10
2018-12-06T22:21:15.389Z,27.60
2018-12-06T22:23:44.211Z,27.50
2018-12-06T22:26:13.046Z,27.57
2018-12-06T22:28:41.871Z,27.33
2018-12-06T22:31:10.734Z,26.00
2018-12-06T22:33:39.581Z,24.93
2018-12-06T22:36:08.459Z,25.60
2018-12-06T22:38:37.262Z,26.83
2018-12-06T22:41:06.094Z,27.03
2018-12-06T22:43:34.959Z,26.67
2018-12-06T22:46:03.816Z,25.70
2018-12-06T22:48:32.646Z,27.83
2018-12-06T22:51:01.550Z,27.50
2018-12-06T22:53:30.391Z,27.70
2018-12-06T22:55:59.250Z,26.10
2018-12-06T22:58:28.183Z,26.23
2018-12-06T23:00:59.374Z,26.37
2018-12-06T23:03:31.659Z,27.33
2018-12-06T23:06:01.685Z,27.17
2018-12-06T23:08:31.836Z,26.50
2018-12-06T23:11:01.967Z,26.73
2018-12-06T23:13:31.253Z,26.83
2018-12-06T23:16:00.406Z,28.33
2018-12-06T23:18:29.303Z,27.23
2018-12-06T23:20:58.085Z,27.80
2018-12-06T23:23:27.178Z,28.03
2018-12-06T23:25:56.987Z,29.20
2018-12-06T23:28:26.437Z,27.83
2018-12-06T23:30:55.426Z,28.57
2018-12-06T23:33:24.313Z,27.63
2018-12-06T23:35:53.146Z,27.47
2018-12-06T23:38:21.902Z,29.27
2018-12-06T23:40:50.730Z,27.47
2018-12-06T23:43:19.647Z,28.30
2018-12-06T23:45:48.524Z,28.23
2018-12-06T23:48:17.412Z,27.50
2018-12-06T23:50:46.204Z,26.67
2018-12-06T23:53:15.687Z,27.47
2018-12-06T23:55:45.312Z,27.33
2018-12-06T23:58:14.229Z,26.93
